sensor_id;sensor_type;location;lat;lon;timestamp;temperature;humidity
11532;DHT22;5822;51.000;5.874;2023-07-31T00:00:41;19.20;99.90
11532;DHT22;5822;51.000;5.874;2023-07-31T00:03:06;19.20;99.90
11532;DHT22;5822;51.000;5.874;2023-07-31T00:05:32;19.20;99.90
11532;DHT22;5822;51.000;5.874;2023-07-31T00:07:58;19.20;99.90
11532;DHT22;5822;51.000;5.874;2023-07-31T00:10:23;19.20;99.90
11532;DHT22;5822;51.000;5.874;2023-07-31T00:12:49;19.10;99.90
11532;DHT22;5822;51.000;5.874;2023-07-31T00:15:15;19.10;99.90
11532;DHT22;5822;51.000;5.874;2023-07-31T00:17:40;19.20;99.90
11532;DHT22;5822;51.000;5.874;2023-07-31T00:20:06;19.20;99.90
11532;DHT22;5822;51.000;5.874;2023-07-31T00:22:32;19.10;99.90
11532;DHT22;5822;51.000;5.874;2023-07-31T00:24:58;19.20;99.90
11532;DHT22;5822;51.000;5.874;2023-07-31T00:27:25;19.20;99.90
11532;DHT22;5822;51.000;5.874;2023-07-31T00:29:50;19.30;99.90
11532;DHT22;5822;51.000;5.874;2023-07-31T00:32:16;19.20;99.90
11532;DHT22;5822;51.000;5.874;2023-07-31T00:34:42;19.10;99.90
11532;DHT22;5822;51.000;5.874;2023-07-31T00:37:07;19.10;99.90
11532;DHT22;5822;51.000;5.874;2023-07-31T00:39:34;19.10;99.90
11532;DHT22;5822;51.000;5.874;2023-07-31T00:41:59;19.20;99.90
11532;DHT22;5822;51.000;5.874;2023-07-31T00:44:25;19.20;99.90
11532;DHT22;5822;51.000;5.874;2023-07-31T00:46:51;19.10;99.90
11532;DHT22;5822;51.000;5.874;2023-07-31T00:49:17;19.10;99.90
11532;DHT22;5822;51.000;5.874;2023-07-31T00:51:43;19.10;99.90
11532;DHT22;5822;51.000;5.874;2023-07-31T00:54:09;19.10;99.90
11532;DHT22;5822;51.000;5.874;2023-07-31T00:56:35;19.10;99.90
11532;DHT22;5822;51.000;5.874;2023-07-31T00:59:01;19.10;99.90
11532;DHT22;5822;51.000;5.874;2023-07-31T01:01:27;19.10;99.90
11532;DHT22;5822;51.000;5.874;2023-07-31T01:03:53;19.10;99.90
11532;DHT22;5822;51.000;5.874;2023-07-31T01:09:16;19.20;99.90
11532;DHT22;5822;51.000;5.874;2023-07-31T01:11:52;19.20;99.90
11532;DHT22;5822;51.000;5.874;2023-07-31T01:14:18;19.20;99.90
11532;DHT22;5822;51.000;5.874;2023-07-31T01:16:44;19.10;99.90
11532;DHT22;5822;51.000;5.874;2023-07-31T01:19:10;19.20;99.90
11532;DHT22;5822;51.000;5.874;2023-07-31T01:26:53;19.30;99.90
11532;DHT22;5822;51.000;5.874;2023-07-31T01:29:29;19.30;99.90
11532;DHT22;5822;51.000;5.874;2023-07-31T01:32:01;19.30;99.90
11532;DHT22;5822;51.000;5.874;2023-07-31T01:34:28;19.30;99.90
11532;DHT22;5822;51.000;5.874;2023-07-31T01:36:55;19.40;99.90
11532;DHT22;5822;51.000;5.874;2023-07-31T01:39:21;19.40;99.90
11532;DHT22;5822;51.000;5.874;2023-07-31T01:41:46;19.40;99.90
11532;DHT22;5822;51.000;5.874;2023-07-31T01:44:12;19.40;99.90
11532;DHT22;5822;51.000;5.874;2023-07-31T01:46:37;19.50;99.90
11532;DHT22;5822;51.000;5.874;2023-07-31T01:49:03;19.50;99.90
11532;DHT22;5822;51.000;5.874;2023-07-31T01:51:31;19.60;99.90
11532;DHT22;5822;51.000;5.874;2023-07-31T01:54:00;19.60;99.90
11532;DHT22;5822;51.000;5.874;2023-07-31T01:56:25;19.50;99.90
11532;DHT22;5822;51.000;5.874;2023-07-31T01:58:51;19.50;99.90
11532;DHT22;5822;51.000;5.874;2023-07-31T02:01:16;19.50;99.90
11532;DHT22;5822;51.000;5.874;2023-07-31T02:03:42;19.50;99.90
11532;DHT22;5822;51.000;5.874;2023-07-31T02:06:08;19.50;99.90
11532;DHT22;5822;51.000;5.874;2023-07-31T02:08:33;19.60;99.90
11532;DHT22;5822;51.000;5.874;2023-07-31T02:10:59;19.50;99.90
11532;DHT22;5822;51.000;5.874;2023-07-31T02:13:25;19.50;99.90
11532;DHT22;5822;51.000;5.874;2023-07-31T02:15:51;19.50;99.90
11532;DHT22;5822;51.000;5.874;2023-07-31T02:18:17;19.50;99.90
11532;DHT22;5822;51.000;5.874;2023-07-31T02:20:42;19.50;99.90
11532;DHT22;5822;51.000;5.874;2023-07-31T02:23:08;19.50;99.90
11532;DHT22;5822;51.000;5.874;2023-07-31T02:25:34;19.50;99.90
11532;DHT22;5822;51.000;5.874;2023-07-31T02:27:59;19.50;99.90
11532;DHT22;5822;51.000;5.874;2023-07-31T02:30:25;19.50;99.90
11532;DHT22;5822;51.000;5.874;2023-07-31T02:32:51;19.60;99.90
11532;DHT22;5822;51.000;5.874;2023-07-31T02:35:16;19.60;99.90
11532;DHT22;5822;51.000;5.874;2023-07-31T02:37:44;19.60;99.90
11532;DHT22;5822;51.000;5.874;2023-07-31T02:40:10;19.60;99.90
11532;DHT22;5822;51.000;5.874;2023-07-31T02:42:35;19.50;99.90
11532;DHT22;5822;51.000;5.874;2023-07-31T02:45:01;19.60;99.90
11532;DHT22;5822;51.000;5.874;2023-07-31T02:47:27;19.60;99.90
11532;DHT22;5822;51.000;5.874;2023-07-31T02:49:52;19.50;99.90
11532;DHT22;5822;51.000;5.874;2023-07-31T02:52:18;19.60;99.90
11532;DHT22;5822;51.000;5.874;2023-07-31T02:54:44;19.60;99.90
11532;DHT22;5822;51.000;5.874;2023-07-31T02:57:09;19.60;99.90
11532;DHT22;5822;51.000;5.874;2023-07-31T02:59:35;19.60;99.90
11532;DHT22;5822;51.000;5.874;2023-07-31T03:02:01;19.60;99.90
11532;DHT22;5822;51.000;5.874;2023-07-31T03:04:26;19.60;99.90
11532;DHT22;5822;51.000;5.874;2023-07-31T03:06:52;19.60;99.90
11532;DHT22;5822;51.000;5.874;2023-07-31T03:09:17;19.70;99.90
11532;DHT22;5822;51.000;5.874;2023-07-31T03:11:43;19.60;99.90
11532;DHT22;5822;51.000;5.874;2023-07-31T03:14:09;19.60;99.90
11532;DHT22;5822;51.000;5.874;2023-07-31T03:16:34;19.60;99.90
11532;DHT22;5822;51.000;5.874;2023-07-31T03:19:00;19.50;99.90
11532;DHT22;5822;51.000;5.874;2023-07-31T03:21:25;19.60;99.90
11532;DHT22;5822;51.000;5.874;2023-07-31T03:23:51;19.60;99.90
11532;DHT22;5822;51.000;5.874;2023-07-31T03:26:17;19.60;99.90
11532;DHT22;5822;51.000;5.874;2023-07-31T03:28:42;19.60;99.90
11532;DHT22;5822;51.000;5.874;2023-07-31T03:31:08;19.70;99.90
11532;DHT22;5822;51.000;5.874;2023-07-31T03:33:34;19.70;99.90
11532;DHT22;5822;51.000;5.874;2023-07-31T03:35:59;19.70;99.90
11532;DHT22;5822;51.000;5.874;2023-07-31T03:38:25;19.80;99.90
11532;DHT22;5822;51.000;5.874;2023-07-31T03:40:51;19.80;99.90
11532;DHT22;5822;51.000;5.874;2023-07-31T03:43:16;19.80;99.90
11532;DHT22;5822;51.000;5.874;2023-07-31T03:45:42;19.80;99.90
11532;DHT22;5822;51.000;5.874;2023-07-31T03:48:08;19.80;99.90
11532;DHT22;5822;51.000;5.874;2023-07-31T03:50:34;19.90;99.90
11532;DHT22;5822;51.000;5.874;2023-07-31T03:52:59;19.80;99.90
11532;DHT22;5822;51.000;5.874;2023-07-31T03:55:25;19.90;99.90
11532;DHT22;5822;51.000;5.874;2023-07-31T03:57:51;19.80;99.90
11532;DHT22;5822;51.000;5.874;2023-07-31T04:00:16;19.90;99.90
11532;DHT22;5822;51.000;5.874;2023-07-31T04:02:42;19.80;99.90
11532;DHT22;5822;51.000;5.874;2023-07-31T04:05:08;19.80;99.90
11532;DHT22;5822;51.000;5.874;2023-07-31T04:07:33;19.80;99.90
11532;DHT22;5822;51.000;5.874;2023-07-31T04:10:00;19.80;99.90
11532;DHT22;5822;51.000;5.874;2023-07-31T04:12:25;19.70;99.90
11532;DHT22;5822;51.000;5.874;2023-07-31T04:14:51;19.80;99.90
11532;DHT22;5822;51.000;5.874;2023-07-31T04:17:20;19.80;99.90
11532;DHT22;5822;51.000;5.874;2023-07-31T04:19:45;19.80;99.90
11532;DHT22;5822;51.000;5.874;2023-07-31T04:22:11;19.80;99.90
11532;DHT22;5822;51.000;5.874;2023-07-31T04:24:37;19.80;99.90
11532;DHT22;5822;51.000;5.874;2023-07-31T04:27:03;19.80;99.90
11532;DHT22;5822;51.000;5.874;2023-07-31T04:29:28;19.70;99.90
11532;DHT22;5822;51.000;5.874;2023-07-31T04:31:54;19.80;99.90
11532;DHT22;5822;51.000;5.874;2023-07-31T04:34:19;19.80;99.90
11532;DHT22;5822;51.000;5.874;2023-07-31T04:36:45;19.80;99.90
11532;DHT22;5822;51.000;5.874;2023-07-31T04:39:11;19.80;99.90
11532;DHT22;5822;51.000;5.874;2023-07-31T04:41:36;19.80;99.90
11532;DHT22;5822;51.000;5.874;2023-07-31T04:44:02;19.80;99.90
11532;DHT22;5822;51.000;5.874;2023-07-31T04:46:29;19.80;99.90
11532;DHT22;5822;51.000;5.874;2023-07-31T04:48:55;19.80;99.90
11532;DHT22;5822;51.000;5.874;2023-07-31T04:51:20;19.80;99.90
11532;DHT22;5822;51.000;5.874;2023-07-31T04:53:46;19.80;99.90
11532;DHT22;5822;51.000;5.874;2023-07-31T04:56:12;19.80;99.90
11532;DHT22;5822;51.000;5.874;2023-07-31T04:58:38;19.80;99.90
11532;DHT22;5822;51.000;5.874;2023-07-31T05:01:03;19.80;99.90
11532;DHT22;5822;51.000;5.874;2023-07-31T05:03:29;19.80;99.90
11532;DHT22;5822;51.000;5.874;2023-07-31T05:05:55;19.80;99.90
11532;DHT22;5822;51.000;5.874;2023-07-31T05:08:20;19.80;99.90
11532;DHT22;5822;51.000;5.874;2023-07-31T05:10:46;19.80;99.90
11532;DHT22;5822;51.000;5.874;2023-07-31T05:13:12;19.80;99.90
11532;DHT22;5822;51.000;5.874;2023-07-31T05:15:37;19.80;99.90
11532;DHT22;5822;51.000;5.874;2023-07-31T05:18:03;19.80;99.90
11532;DHT22;5822;51.000;5.874;2023-07-31T05:20:29;19.70;99.90
11532;DHT22;5822;51.000;5.874;2023-07-31T05:22:54;19.80;99.90
11532;DHT22;5822;51.000;5.874;2023-07-31T05:25:20;19.80;99.90
11532;DHT22;5822;51.000;5.874;2023-07-31T05:27:46;19.80;99.90
11532;DHT22;5822;51.000;5.874;2023-07-31T05:30:11;19.80;99.90
11532;DHT22;5822;51.000;5.874;2023-07-31T05:32:37;19.80;99.90
11532;DHT22;5822;51.000;5.874;2023-07-31T05:35:03;19.70;99.90
11532;DHT22;5822;51.000;5.874;2023-07-31T05:37:28;19.70;99.90
11532;DHT22;5822;51.000;5.874;2023-07-31T05:39:54;19.70;99.90
11532;DHT22;5822;51.000;5.874;2023-07-31T05:42:20;19.70;99.90
11532;DHT22;5822;51.000;5.874;2023-07-31T05:44:47;19.70;99.90
11532;DHT22;5822;51.000;5.874;2023-07-31T05:47:13;19.60;99.90
11532;DHT22;5822;51.000;5.874;2023-07-31T05:49:38;19.60;99.90
11532;DHT22;5822;51.000;5.874;2023-07-31T05:52:04;19.70;99.90
11532;DHT22;5822;51.000;5.874;2023-07-31T05:54:31;19.70;99.90
11532;DHT22;5822;51.000;5.874;2023-07-31T05:56:57;19.60;99.90
11532;DHT22;5822;51.000;5.874;2023-07-31T05:59:22;19.60;99.90
11532;DHT22;5822;51.000;5.874;2023-07-31T06:01:48;19.60;99.90
11532;DHT22;5822;51.000;5.874;2023-07-31T06:04:13;19.70;99.90
11532;DHT22;5822;51.000;5.874;2023-07-31T06:06:39;19.70;99.90
11532;DHT22;5822;51.000;5.874;2023-07-31T06:09:05;19.70;99.90
11532;DHT22;5822;51.000;5.874;2023-07-31T06:11:30;19.80;99.90
11532;DHT22;5822;51.000;5.874;2023-07-31T06:13:56;19.80;99.90
11532;DHT22;5822;51.000;5.874;2023-07-31T06:16:22;19.80;99.90
11532;DHT22;5822;51.000;5.874;2023-07-31T06:18:48;19.90;99.90
11532;DHT22;5822;51.000;5.874;2023-07-31T06:21:14;19.90;99.90
11532;DHT22;5822;51.000;5.874;2023-07-31T06:23:39;19.90;99.90
11532;DHT22;5822;51.000;5.874;2023-07-31T06:26:05;19.90;99.90
11532;DHT22;5822;51.000;5.874;2023-07-31T06:28:31;19.90;99.90
11532;DHT22;5822;51.000;5.874;2023-07-31T06:31:00;19.90;99.90
11532;DHT22;5822;51.000;5.874;2023-07-31T06:33:26;19.90;99.90
11532;DHT22;5822;51.000;5.874;2023-07-31T06:35:55;19.90;99.90
11532;DHT22;5822;51.000;5.874;2023-07-31T06:38:25;19.90;99.90
11532;DHT22;5822;51.000;5.874;2023-07-31T06:40:51;19.90;99.90
11532;DHT22;5822;51.000;5.874;2023-07-31T06:43:16;19.90;99.90
11532;DHT22;5822;51.000;5.874;2023-07-31T06:45:42;19.90;99.90
11532;DHT22;5822;51.000;5.874;2023-07-31T06:48:07;19.80;99.90
11532;DHT22;5822;51.000;5.874;2023-07-31T06:50:33;19.70;99.90
11532;DHT22;5822;51.000;5.874;2023-07-31T06:52:59;19.70;99.90
11532;DHT22;5822;51.000;5.874;2023-07-31T06:55:25;19.70;99.90
11532;DHT22;5822;51.000;5.874;2023-07-31T06:57:53;19.60;99.90
11532;DHT22;5822;51.000;5.874;2023-07-31T07:00:20;19.50;99.90
11532;DHT22;5822;51.000;5.874;2023-07-31T07:02:46;19.50;99.90
11532;DHT22;5822;51.000;5.874;2023-07-31T07:05:16;19.60;99.90
11532;DHT22;5822;51.000;5.874;2023-07-31T07:07:43;19.50;99.90
11532;DHT22;5822;51.000;5.874;2023-07-31T07:10:09;19.40;99.90
11532;DHT22;5822;51.000;5.874;2023-07-31T07:12:35;19.40;99.90
11532;DHT22;5822;51.000;5.874;2023-07-31T07:15:01;19.50;99.90
11532;DHT22;5822;51.000;5.874;2023-07-31T07:17:28;19.50;99.90
11532;DHT22;5822;51.000;5.874;2023-07-31T07:19:56;19.40;99.90
11532;DHT22;5822;51.000;5.874;2023-07-31T07:22:22;19.40;99.90
11532;DHT22;5822;51.000;5.874;2023-07-31T07:24:48;19.50;99.90
11532;DHT22;5822;51.000;5.874;2023-07-31T07:27:14;19.50;99.90
11532;DHT22;5822;51.000;5.874;2023-07-31T07:29:40;19.50;99.90
11532;DHT22;5822;51.000;5.874;2023-07-31T07:32:06;19.50;99.90
11532;DHT22;5822;51.000;5.874;2023-07-31T07:34:31;19.50;99.90
11532;DHT22;5822;51.000;5.874;2023-07-31T07:36:57;19.40;99.90
11532;DHT22;5822;51.000;5.874;2023-07-31T07:39:23;19.50;99.90
11532;DHT22;5822;51.000;5.874;2023-07-31T07:41:48;19.60;99.90
11532;DHT22;5822;51.000;5.874;2023-07-31T07:44:14;19.60;99.90
11532;DHT22;5822;51.000;5.874;2023-07-31T07:46:40;19.70;99.90
11532;DHT22;5822;51.000;5.874;2023-07-31T07:49:06;19.70;99.90
11532;DHT22;5822;51.000;5.874;2023-07-31T07:51:32;19.70;99.90
11532;DHT22;5822;51.000;5.874;2023-07-31T07:53:58;19.80;99.90
11532;DHT22;5822;51.000;5.874;2023-07-31T07:56:27;19.90;99.90
11532;DHT22;5822;51.000;5.874;2023-07-31T07:58:53;19.90;99.90
11532;DHT22;5822;51.000;5.874;2023-07-31T08:01:19;20.00;99.90
11532;DHT22;5822;51.000;5.874;2023-07-31T08:03:46;20.00;99.90
11532;DHT22;5822;51.000;5.874;2023-07-31T08:06:12;20.10;99.90
11532;DHT22;5822;51.000;5.874;2023-07-31T08:08:38;20.00;99.90
11532;DHT22;5822;51.000;5.874;2023-07-31T08:11:04;20.10;99.90
11532;DHT22;5822;51.000;5.874;2023-07-31T08:13:30;20.10;99.90
11532;DHT22;5822;51.000;5.874;2023-07-31T08:15:55;20.10;99.90
11532;DHT22;5822;51.000;5.874;2023-07-31T08:18:21;20.00;99.90
11532;DHT22;5822;51.000;5.874;2023-07-31T08:20:47;20.10;99.90
11532;DHT22;5822;51.000;5.874;2023-07-31T08:23:13;20.00;99.90
11532;DHT22;5822;51.000;5.874;2023-07-31T08:25:39;20.00;99.90
11532;DHT22;5822;51.000;5.874;2023-07-31T08:28:05;20.00;99.90
11532;DHT22;5822;51.000;5.874;2023-07-31T08:30:31;20.10;99.90
11532;DHT22;5822;51.000;5.874;2023-07-31T08:32:59;20.10;99.90
11532;DHT22;5822;51.000;5.874;2023-07-31T08:35:25;20.20;99.90
11532;DHT22;5822;51.000;5.874;2023-07-31T08:37:51;20.20;99.90
11532;DHT22;5822;51.000;5.874;2023-07-31T08:40:17;20.10;99.90
11532;DHT22;5822;51.000;5.874;2023-07-31T08:42:44;20.10;99.90
11532;DHT22;5822;51.000;5.874;2023-07-31T08:45:14;20.20;99.90
11532;DHT22;5822;51.000;5.874;2023-07-31T08:47:45;20.10;99.90
11532;DHT22;5822;51.000;5.874;2023-07-31T08:50:16;20.10;99.90
11532;DHT22;5822;51.000;5.874;2023-07-31T08:52:43;20.20;99.90
11532;DHT22;5822;51.000;5.874;2023-07-31T08:55:08;20.20;99.90
11532;DHT22;5822;51.000;5.874;2023-07-31T08:57:36;20.20;99.90
11532;DHT22;5822;51.000;5.874;2023-07-31T09:00:03;20.30;99.90
11532;DHT22;5822;51.000;5.874;2023-07-31T09:02:38;20.20;99.90
11532;DHT22;5822;51.000;5.874;2023-07-31T09:05:07;20.20;99.90
11532;DHT22;5822;51.000;5.874;2023-07-31T09:07:34;20.20;99.90
11532;DHT22;5822;51.000;5.874;2023-07-31T09:10:02;20.30;99.90
11532;DHT22;5822;51.000;5.874;2023-07-31T09:12:28;20.20;99.90
11532;DHT22;5822;51.000;5.874;2023-07-31T09:14:53;20.20;99.90
11532;DHT22;5822;51.000;5.874;2023-07-31T09:17:33;20.20;99.90
11532;DHT22;5822;51.000;5.874;2023-07-31T09:20:17;20.20;99.90
11532;DHT22;5822;51.000;5.874;2023-07-31T09:22:44;20.20;99.90
11532;DHT22;5822;51.000;5.874;2023-07-31T09:25:20;20.20;99.90
11532;DHT22;5822;51.000;5.874;2023-07-31T09:27:54;20.10;99.90
11532;DHT22;5822;51.000;5.874;2023-07-31T09:30:20;20.20;99.90
11532;DHT22;5822;51.000;5.874;2023-07-31T09:32:47;20.10;99.90
11532;DHT22;5822;51.000;5.874;2023-07-31T09:35:28;20.20;99.90
11532;DHT22;5822;51.000;5.874;2023-07-31T09:38:00;20.10;99.90
11532;DHT22;5822;51.000;5.874;2023-07-31T09:40:34;20.20;99.90
11532;DHT22;5822;51.000;5.874;2023-07-31T09:43:05;20.30;99.90
11532;DHT22;5822;51.000;5.874;2023-07-31T09:45:34;20.40;99.90
11532;DHT22;5822;51.000;5.874;2023-07-31T09:48:01;20.40;99.90
11532;DHT22;5822;51.000;5.874;2023-07-31T09:50:28;20.40;99.90
11532;DHT22;5822;51.000;5.874;2023-07-31T09:52:54;20.30;99.90
11532;DHT22;5822;51.000;5.874;2023-07-31T09:55:20;20.40;99.90
11532;DHT22;5822;51.000;5.874;2023-07-31T09:57:48;20.40;99.90
11532;DHT22;5822;51.000;5.874;2023-07-31T10:00:16;20.40;99.90
11532;DHT22;5822;51.000;5.874;2023-07-31T10:02:45;20.50;99.90
11532;DHT22;5822;51.000;5.874;2023-07-31T10:05:15;20.50;99.90
11532;DHT22;5822;51.000;5.874;2023-07-31T10:07:57;20.60;99.90
11532;DHT22;5822;51.000;5.874;2023-07-31T10:10:23;20.50;99.90
11532;DHT22;5822;51.000;5.874;2023-07-31T10:12:52;20.50;99.90
11532;DHT22;5822;51.000;5.874;2023-07-31T10:15:18;20.50;99.90
11532;DHT22;5822;51.000;5.874;2023-07-31T10:17:47;20.50;99.90
11532;DHT22;5822;51.000;5.874;2023-07-31T10:20:14;20.60;99.90
11532;DHT22;5822;51.000;5.874;2023-07-31T10:22:45;20.60;99.90
11532;DHT22;5822;51.000;5.874;2023-07-31T10:25:11;20.80;99.90
11532;DHT22;5822;51.000;5.874;2023-07-31T10:27:39;20.80;99.90
11532;DHT22;5822;51.000;5.874;2023-07-31T10:30:14;20.80;99.90
11532;DHT22;5822;51.000;5.874;2023-07-31T10:32:41;20.80;99.90
11532;DHT22;5822;51.000;5.874;2023-07-31T10:35:09;20.90;99.90
11532;DHT22;5822;51.000;5.874;2023-07-31T10:37:42;21.00;99.90
11532;DHT22;5822;51.000;5.874;2023-07-31T10:40:26;20.90;99.90
11532;DHT22;5822;51.000;5.874;2023-07-31T10:42:54;20.90;99.90
11532;DHT22;5822;51.000;5.874;2023-07-31T10:47:58;21.00;99.90
11532;DHT22;5822;51.000;5.874;2023-07-31T10:50:26;20.90;99.90
11532;DHT22;5822;51.000;5.874;2023-07-31T10:52:54;20.90;99.90
11532;DHT22;5822;51.000;5.874;2023-07-31T10:55:27;21.00;99.90
11532;DHT22;5822;51.000;5.874;2023-07-31T10:57:54;21.00;99.90
11532;DHT22;5822;51.000;5.874;2023-07-31T11:03:02;21.00;99.90
11532;DHT22;5822;51.000;5.874;2023-07-31T11:05:49;21.10;99.90
11532;DHT22;5822;51.000;5.874;2023-07-31T11:10:46;21.10;99.90
11532;DHT22;5822;51.000;5.874;2023-07-31T11:13:12;21.10;99.90
11532;DHT22;5822;51.000;5.874;2023-07-31T11:15:38;21.10;99.90
11532;DHT22;5822;51.000;5.874;2023-07-31T11:18:04;21.10;99.90
11532;DHT22;5822;51.000;5.874;2023-07-31T11:20:32;21.10;99.90
11532;DHT22;5822;51.000;5.874;2023-07-31T11:23:07;21.10;99.90
11532;DHT22;5822;51.000;5.874;2023-07-31T11:25:33;21.00;99.90
11532;DHT22;5822;51.000;5.874;2023-07-31T11:30:34;21.00;99.90
11532;DHT22;5822;51.000;5.874;2023-07-31T11:33:05;20.90;99.90
11532;DHT22;5822;51.000;5.874;2023-07-31T11:35:36;20.90;99.90
11532;DHT22;5822;51.000;5.874;2023-07-31T11:38:07;20.90;99.90
11532;DHT22;5822;51.000;5.874;2023-07-31T11:40:44;20.80;99.90
11532;DHT22;5822;51.000;5.874;2023-07-31T11:43:10;20.80;99.90
11532;DHT22;5822;51.000;5.874;2023-07-31T11:45:37;20.80;99.90
11532;DHT22;5822;51.000;5.874;2023-07-31T11:48:04;20.80;99.90
11532;DHT22;5822;51.000;5.874;2023-07-31T11:50:33;20.80;99.90
11532;DHT22;5822;51.000;5.874;2023-07-31T11:53:04;20.70;99.90
11532;DHT22;5822;51.000;5.874;2023-07-31T11:55:31;20.70;99.90
11532;DHT22;5822;51.000;5.874;2023-07-31T11:57:59;20.80;99.90
11532;DHT22;5822;51.000;5.874;2023-07-31T12:00:25;20.90;99.90
11532;DHT22;5822;51.000;5.874;2023-07-31T12:02:53;21.00;99.90
11532;DHT22;5822;51.000;5.874;2023-07-31T12:05:18;21.00;99.90
11532;DHT22;5822;51.000;5.874;2023-07-31T12:07:54;21.10;99.90
11532;DHT22;5822;51.000;5.874;2023-07-31T12:12:56;21.30;99.90
11532;DHT22;5822;51.000;5.874;2023-07-31T12:15:38;21.30;99.90
11532;DHT22;5822;51.000;5.874;2023-07-31T12:18:16;21.30;99.90
11532;DHT22;5822;51.000;5.874;2023-07-31T12:20:55;21.30;99.90
11532;DHT22;5822;51.000;5.874;2023-07-31T12:23:29;21.30;99.90
11532;DHT22;5822;51.000;5.874;2023-07-31T12:26:13;21.20;99.90
11532;DHT22;5822;51.000;5.874;2023-07-31T12:31:28;21.20;99.90
11532;DHT22;5822;51.000;5.874;2023-07-31T12:33:55;21.20;99.90
11532;DHT22;5822;51.000;5.874;2023-07-31T12:36:23;21.20;99.90
11532;DHT22;5822;51.000;5.874;2023-07-31T12:38:50;21.30;99.90
11532;DHT22;5822;51.000;5.874;2023-07-31T12:41:15;21.30;99.90
11532;DHT22;5822;51.000;5.874;2023-07-31T12:43:43;21.40;99.90
11532;DHT22;5822;51.000;5.874;2023-07-31T12:46:10;21.40;99.90
11532;DHT22;5822;51.000;5.874;2023-07-31T12:48:37;21.50;99.90
11532;DHT22;5822;51.000;5.874;2023-07-31T12:51:06;21.60;99.90
11532;DHT22;5822;51.000;5.874;2023-07-31T12:53:34;21.60;99.90
11532;DHT22;5822;51.000;5.874;2023-07-31T12:56:01;21.60;99.90
11532;DHT22;5822;51.000;5.874;2023-07-31T12:58:26;21.70;99.90
11532;DHT22;5822;51.000;5.874;2023-07-31T13:00:52;21.80;99.90
11532;DHT22;5822;51.000;5.874;2023-07-31T13:03:18;21.90;99.90
11532;DHT22;5822;51.000;5.874;2023-07-31T13:05:43;22.00;99.90
11532;DHT22;5822;51.000;5.874;2023-07-31T13:08:09;22.10;99.90
11532;DHT22;5822;51.000;5.874;2023-07-31T13:10:35;22.20;99.90
11532;DHT22;5822;51.000;5.874;2023-07-31T13:13:00;22.30;99.90
11532;DHT22;5822;51.000;5.874;2023-07-31T13:15:26;22.30;99.90
11532;DHT22;5822;51.000;5.874;2023-07-31T13:17:52;22.40;99.90
11532;DHT22;5822;51.000;5.874;2023-07-31T13:20:17;22.40;99.90
11532;DHT22;5822;51.000;5.874;2023-07-31T13:22:43;22.40;99.90
11532;DHT22;5822;51.000;5.874;2023-07-31T13:25:08;22.40;99.90
11532;DHT22;5822;51.000;5.874;2023-07-31T13:27:35;22.30;99.90
11532;DHT22;5822;51.000;5.874;2023-07-31T13:30:01;22.20;99.90
11532;DHT22;5822;51.000;5.874;2023-07-31T13:32:26;22.10;99.90
11532;DHT22;5822;51.000;5.874;2023-07-31T13:34:52;22.00;99.90
11532;DHT22;5822;51.000;5.874;2023-07-31T13:37:18;22.00;99.90
11532;DHT22;5822;51.000;5.874;2023-07-31T13:39:43;22.00;99.90
11532;DHT22;5822;51.000;5.874;2023-07-31T13:42:09;22.00;99.90
11532;DHT22;5822;51.000;5.874;2023-07-31T13:44:41;21.90;99.90
11532;DHT22;5822;51.000;5.874;2023-07-31T13:47:07;21.90;99.90
11532;DHT22;5822;51.000;5.874;2023-07-31T13:49:34;21.80;99.90
11532;DHT22;5822;51.000;5.874;2023-07-31T13:52:00;21.80;99.90
11532;DHT22;5822;51.000;5.874;2023-07-31T13:54:25;21.80;99.90
11532;DHT22;5822;51.000;5.874;2023-07-31T13:56:52;21.80;99.90
11532;DHT22;5822;51.000;5.874;2023-07-31T13:59:17;21.70;99.90
11532;DHT22;5822;51.000;5.874;2023-07-31T14:01:44;21.70;99.90
11532;DHT22;5822;51.000;5.874;2023-07-31T14:04:10;21.70;99.90
11532;DHT22;5822;51.000;5.874;2023-07-31T14:06:35;21.70;99.90
11532;DHT22;5822;51.000;5.874;2023-07-31T14:09:01;21.70;99.90
11532;DHT22;5822;51.000;5.874;2023-07-31T14:11:28;21.70;99.90
11532;DHT22;5822;51.000;5.874;2023-07-31T14:13:53;21.80;99.90
11532;DHT22;5822;51.000;5.874;2023-07-31T14:16:19;21.80;99.90
11532;DHT22;5822;51.000;5.874;2023-07-31T14:18:45;21.80;99.90
11532;DHT22;5822;51.000;5.874;2023-07-31T14:21:12;21.90;99.90
11532;DHT22;5822;51.000;5.874;2023-07-31T14:23:37;21.90;99.90
11532;DHT22;5822;51.000;5.874;2023-07-31T14:26:03;21.90;99.90
11532;DHT22;5822;51.000;5.874;2023-07-31T14:28:29;21.80;99.90
11532;DHT22;5822;51.000;5.874;2023-07-31T14:30:55;21.80;99.90
11532;DHT22;5822;51.000;5.874;2023-07-31T14:33:20;21.80;99.90
11532;DHT22;5822;51.000;5.874;2023-07-31T14:35:46;21.80;99.90
11532;DHT22;5822;51.000;5.874;2023-07-31T14:38:12;21.80;99.90
11532;DHT22;5822;51.000;5.874;2023-07-31T14:40:37;21.70;99.90
11532;DHT22;5822;51.000;5.874;2023-07-31T14:43:04;21.70;99.90
11532;DHT22;5822;51.000;5.874;2023-07-31T14:45:30;21.70;99.90
11532;DHT22;5822;51.000;5.874;2023-07-31T14:47:55;21.70;99.90
11532;DHT22;5822;51.000;5.874;2023-07-31T14:50:21;21.60;99.90
11532;DHT22;5822;51.000;5.874;2023-07-31T14:52:48;21.60;99.90
11532;DHT22;5822;51.000;5.874;2023-07-31T14:55:13;21.60;99.90
11532;DHT22;5822;51.000;5.874;2023-07-31T14:57:39;21.60;99.90
11532;DHT22;5822;51.000;5.874;2023-07-31T15:00:05;21.60;99.90
11532;DHT22;5822;51.000;5.874;2023-07-31T15:02:34;21.60;99.90
11532;DHT22;5822;51.000;5.874;2023-07-31T15:05:00;21.50;99.90
11532;DHT22;5822;51.000;5.874;2023-07-31T15:07:25;21.50;99.90
11532;DHT22;5822;51.000;5.874;2023-07-31T15:09:51;21.40;99.90
11532;DHT22;5822;51.000;5.874;2023-07-31T15:12:17;21.40;99.90
11532;DHT22;5822;51.000;5.874;2023-07-31T15:14:42;21.30;99.90
11532;DHT22;5822;51.000;5.874;2023-07-31T15:17:08;21.30;99.90
11532;DHT22;5822;51.000;5.874;2023-07-31T15:19:34;21.20;99.90
11532;DHT22;5822;51.000;5.874;2023-07-31T15:22:02;21.10;99.90
11532;DHT22;5822;51.000;5.874;2023-07-31T15:24:28;21.10;99.90
11532;DHT22;5822;51.000;5.874;2023-07-31T15:26:54;21.10;99.90
11532;DHT22;5822;51.000;5.874;2023-07-31T15:29:20;21.10;99.90
11532;DHT22;5822;51.000;5.874;2023-07-31T15:31:47;21.10;99.90
11532;DHT22;5822;51.000;5.874;2023-07-31T15:34:14;21.00;99.90
11532;DHT22;5822;51.000;5.874;2023-07-31T15:36:40;21.00;99.90
11532;DHT22;5822;51.000;5.874;2023-07-31T15:39:05;21.00;99.90
11532;DHT22;5822;51.000;5.874;2023-07-31T15:41:40;21.00;99.90
11532;DHT22;5822;51.000;5.874;2023-07-31T15:44:07;20.90;99.90
11532;DHT22;5822;51.000;5.874;2023-07-31T15:46:32;21.00;99.90
11532;DHT22;5822;51.000;5.874;2023-07-31T15:48:58;21.00;99.90
11532;DHT22;5822;51.000;5.874;2023-07-31T15:51:24;20.90;99.90
11532;DHT22;5822;51.000;5.874;2023-07-31T15:53:51;20.90;99.90
11532;DHT22;5822;51.000;5.874;2023-07-31T15:56:17;20.90;99.90
11532;DHT22;5822;51.000;5.874;2023-07-31T15:58:43;20.80;99.90
11532;DHT22;5822;51.000;5.874;2023-07-31T16:01:08;20.70;99.90
11532;DHT22;5822;51.000;5.874;2023-07-31T16:03:34;20.70;99.90
11532;DHT22;5822;51.000;5.874;2023-07-31T16:06:00;20.70;99.90